Aérodrome :
LOGIN :

S'inscrire | Disclaimer

   EN    FR    IT 

 










Légende :    VFR   VFR Marginal   IFR   IFR Intensif   IFR Très Intensif
Visi : 
Plafond : 
>= 8 km
>= 3000ft
5 à 8 km
1000 à 3000 ft
1500m à 5 km
500 à 1000 ft
800 à 1500m
200 à 500 ft
< 800m
< 200 ft
Symboles :   Orages  Brouillard  Fortes neiges  Fortes précipitations  Vent > 20 kt
SIGMETs :   Divers  Orages  Givrage  Turbulence  Onde Orograph.  Cendres Volcan.







- Altitude de l'aérodrome : 12 ft
- Code IATA : NCE
- Voir les cartes d'approche


LFMN - Nice

DERNIER METAR :
  • 260330Z 33006KT 9999 -RA FEW016 BKN036 13/11 Q1007 NOSIG

METARs EXPIRÉS :
  • 260253Z VRB02KT 9999 -RA FEW020 BKN040 BKN090 14/11 Q1007 NOSIG
  • 260230Z 34006KT 9999 FEW020 SCT043 BKN090 14/10 Q1008 NOSIG
  • 260200Z 35003KT 300V020 9999 FEW020 SCT043 BKN090 14/10 Q1008 NOSIG
  • 260130Z 34002KT 9999 FEW020 SCT050 BKN090 14/11 Q1008 NOSIG
  • 260100Z 36003KT 9999 FEW020 SCT050 BKN100 14/10 Q1008 NOSIG

TAF TAF LFMN
Valide du 26 à 03h jusqu'au 27 à 09h UTC


260200Z 2603/2709 36010KT 9999 SCT015 BKN030
TEMPO 2604/2614 RA BKN015
PROB40
TEMPO 2606/2609 SHRA SCT015TCU BKN020
BECMG 2611/2613 18005KT
BECMG 2619/2621 34010KT FEW040 BKN150
TEMPO 2618/2702 24010KT
BECMG 2707/2709 18005KT
ATIS : +33 4 93 17 21 16
Pas de NOTAMs connus pour ce terrain.



MET'MAP, la Météo Aéronautique d'un coup d'oeil ! - Copyright ORBIFLY Décembre 2007 - Disclaimer

ORBIFLY MET'MAP TEAM :

Programmation & Développement : Alexandra Zaïnal
Conception & Développement : Baudouin d'Aumeries
Co-Programmation & Développement : Marc-Olivier Méhu
Soutien technique & logistique : Manuel Goepfert

Contact : metmap@orbifly.com




SOURCES & CREDITS :

   NOAA